Time;durP1;ratioP1;P1;durP2;ratioP2;P2;SDS_P1;SDS_P2;PMS_P1;PMS_P2;Temp;Humidity;BMP_temperature;BMP_pressure;BME280_temperature;BME280_humidity;BME280_pressure;Samples;Min_cycle;Max_cycle;Signal;HPM_P1;HPM_P2
2022/08/06 00:02:28;;;;;;;6.05;5.30;;;29.70;38.80;;;;;;5106612;27;47691;-71
2022/08/06 00:04:56;;;;;;;7.55;5.35;;;29.60;38.80;;;;;;5106565;27;45257;-72
2022/08/06 00:07:23;;;;;;;7.72;5.93;;;29.70;38.90;;;;;;5106791;27;45211;-71
2022/08/06 00:09:50;;;;;;;8.10;6.13;;;29.60;38.80;;;;;;5106906;27;45184;-71
2022/08/06 00:12:17;;;;;;;7.05;5.80;;;29.60;38.70;;;;;;5106418;27;46386;-71
2022/08/06 00:14:43;;;;;;;7.25;5.72;;;29.60;38.80;;;;;;5106541;27;45330;-71
2022/08/06 00:17:10;;;;;;;8.52;6.10;;;29.60;38.80;;;;;;5106775;27;45326;-71
2022/08/06 00:19:37;;;;;;;7.55;5.85;;;29.60;38.90;;;;;;5102971;27;45405;-71
2022/08/06 00:22:05;;;;;;;8.02;5.78;;;29.60;38.80;;;;;;5085780;28;46402;-71
2022/08/06 00:24:32;;;;;;;6.70;5.68;;;29.60;38.90;;;;;;5085919;28;45189;-71
2022/08/06 00:26:59;;;;;;;7.82;5.82;;;29.60;38.90;;;;;;5085931;28;45375;-71
2022/08/06 00:29:25;;;;;;;7.53;5.57;;;29.50;38.80;;;;;;5086690;27;45233;-71
2022/08/06 00:31:52;;;;;;;6.65;5.60;;;29.50;38.80;;;;;;5086450;28;46111;-71
2022/08/06 00:34:19;;;;;;;5.55;4.95;;;29.50;38.80;;;;;;5089450;28;45143;-71
2022/08/06 00:36:46;;;;;;;5.88;5.28;;;29.50;38.90;;;;;;5089334;28;45262;-71
2022/08/06 00:39:14;;;;;;;6.40;5.32;;;29.50;38.90;;;;;;5083715;28;45401;-71
2022/08/06 00:41:41;;;;;;;6.88;5.20;;;29.50;39.00;;;;;;5068402;28;45268;-72
2022/08/06 00:44:07;;;;;;;5.78;4.82;;;29.40;38.90;;;;;;5068158;28;45304;-71
2022/08/06 00:46:34;;;;;;;6.72;5.00;;;29.40;38.90;;;;;;5068767;28;45262;-71
2022/08/06 00:49:01;;;;;;;5.70;4.90;;;29.40;39.00;;;;;;5068900;28;45333;-71
2022/08/06 00:51:28;;;;;;;5.38;4.88;;;29.40;39.00;;;;;;5068640;28;45322;-71
2022/08/06 00:53:55;;;;;;;6.20;5.20;;;29.40;39.00;;;;;;5068684;28;45273;-71
2022/08/06 00:56:23;;;;;;;5.25;4.70;;;29.40;39.00;;;;;;5068640;28;45311;-72
2022/08/06 00:58:50;;;;;;;6.47;4.75;;;29.40;39.10;;;;;;5068806;28;45166;-71
2022/08/06 01:01:16;;;;;;;4.97;4.22;;;29.40;39.10;;;;;;5068420;28;46370;-71
2022/08/06 01:03:43;;;;;;;5.78;4.85;;;29.30;39.10;;;;;;5068446;28;45135;-71
2022/08/06 01:06:10;;;;;;;5.10;4.60;;;29.30;39.10;;;;;;5068387;28;45358;-72
2022/08/06 01:08:37;;;;;;;5.57;4.20;;;29.30;39.10;;;;;;5068618;28;45254;-71
2022/08/06 01:11:03;;;;;;;5.68;4.13;;;29.30;39.10;;;;;;5068122;28;46419;-71
2022/08/06 01:13:32;;;;;;;4.85;4.20;;;29.30;39.10;;;;;;5068273;28;45164;-71
2022/08/06 01:16:04;;;;;;;4.95;4.05;;;29.30;39.10;;;;;;5068375;28;45264;-72
2022/08/06 01:18:32;;;;;;;4.65;4.03;;;29.30;39.20;;;;;;5068480;28;45272;-71
2022/08/06 01:21:08;;;;;;;5.15;4.32;;;29.30;39.10;;;;;;5070412;28;46482;-71
2022/08/06 01:23:48;;;;;;;5.90;4.13;;;29.20;39.10;;;;;;5088414;28;45270;-71
2022/08/06 01:26:35;;;;;;;5.72;4.18;;;29.20;39.10;;;;;;5088482;28;45234;-71
2022/08/06 01:29:05;;;;;;;4.78;3.92;;;29.20;39.20;;;;;;5087107;28;45178;-71
2022/08/06 01:31:35;;;;;;;4.78;4.00;;;29.20;39.20;;;;;;5067848;28;45334;-71
2022/08/06 01:34:06;;;;;;;4.57;3.50;;;29.20;39.20;;;;;;5067887;28;45305;-71
2022/08/06 01:36:36;;;;;;;4.20;3.80;;;29.20;39.30;;;;;;5068068;28;45322;-71
2022/08/06 01:39:03;;;;;;;5.60;3.80;;;29.20;39.30;;;;;;5071085;28;45145;-71
2022/08/06 01:41:39;;;;;;;4.53;3.90;;;29.20;39.90;;;;;;5087197;27;46617;-71
2022/08/06 01:44:08;;;;;;;4.28;3.55;;;29.20;39.30;;;;;;5079710;28;45316;-71
2022/08/06 01:46:36;;;;;;;5.10;3.63;;;29.20;39.30;;;;;;5088154;28;45201;-70
2022/08/06 01:49:03;;;;;;;4.25;3.75;;;29.10;39.20;;;;;;5088283;28;45189;-71
2022/08/06 01:51:30;;;;;;;4.00;3.25;;;29.10;39.30;;;;;;5087377;28;46392;-71
2022/08/06 01:53:56;;;;;;;4.03;3.10;;;29.10;39.30;;;;;;5088020;28;45284;-71
2022/08/06 01:56:23;;;;;;;4.75;3.22;;;29.10;39.30;;;;;;5088067;28;45245;-71
2022/08/06 01:58:50;;;;;;;3.85;3.25;;;29.10;39.30;;;;;;5088081;28;45118;-71
2022/08/06 02:01:18;;;;;;;3.38;3.08;;;29.10;39.30;;;;;;5087810;28;47295;-71
2022/08/06 02:03:48;;;;;;;4.00;3.47;;;29.10;39.40;;;;;;5087687;28;45342;-71
2022/08/06 02:06:17;;;;;;;4.35;3.58;;;29.10;39.30;;;;;;5087717;28;45258;-71
2022/08/06 02:08:44;;;;;;;4.13;3.28;;;29.10;39.30;;;;;;5087959;28;45272;-71
2022/08/06 02:11:11;;;;;;;3.65;2.92;;;29.00;39.30;;;;;;5087641;28;45462;-71
2022/08/06 02:13:38;;;;;;;4.07;3.20;;;29.00;39.30;;;;;;5087698;28;45306;-71
2022/08/06 02:16:06;;;;;;;3.28;2.97;;;29.00;39.30;;;;;;5079148;28;45220;-71
2022/08/06 02:18:36;;;;;;;3.97;2.97;;;29.00;39.40;;;;;;5087808;28;45400;-71
2022/08/06 02:21:04;;;;;;;3.35;3.05;;;29.00;39.40;;;;;;5071700;28;45287;-71
2022/08/06 02:23:31;;;;;;;3.45;2.75;;;29.00;39.40;;;;;;5067205;28;45111;-71
2022/08/06 02:25:57;;;;;;;3.60;2.67;;;28.90;39.40;;;;;;5067347;28;45242;-71
2022/08/06 02:28:25;;;;;;;3.22;2.80;;;28.90;39.40;;;;;;5067355;28;45352;-71
2022/08/06 02:30:53;;;;;;;3.17;2.70;;;28.90;39.40;;;;;;5066980;28;45235;-71
2022/08/06 02:33:20;;;;;;;3.10;2.80;;;28.90;39.40;;;;;;5067086;28;45140;-71
2022/08/06 02:35:49;;;;;;;3.00;2.60;;;28.90;39.40;;;;;;5067293;28;45179;-71
2022/08/06 02:38:19;;;;;;;2.88;2.60;;;28.90;39.50;;;;;;5067300;28;45228;-71
2022/08/06 02:40:48;;;;;;;2.85;2.60;;;28.90;40.10;;;;;;5065898;28;45479;-71
2022/08/06 02:43:16;;;;;;;2.53;2.33;;;28.90;39.40;;;;;;5066280;28;45422;-71
2022/08/06 02:45:44;;;;;;;3.03;2.60;;;28.90;39.50;;;;;;5067033;28;45330;-71
2022/08/06 02:48:14;;;;;;;3.28;2.17;;;28.80;39.40;;;;;;5067231;28;45158;-71
2022/08/06 02:50:42;;;;;;;2.63;2.40;;;28.80;39.50;;;;;;5066763;28;45477;-71
2022/08/06 02:53:12;;;;;;;2.67;2.47;;;28.80;39.40;;;;;;5066396;28;45226;-71
2022/08/06 02:55:40;;;;;;;2.85;2.20;;;28.80;39.50;;;;;;5066970;28;45190;-71
2022/08/06 02:58:12;;;;;;;2.58;2.38;;;28.80;39.50;;;;;;5066991;28;45247;-71
2022/08/06 03:00:40;;;;;;;2.40;2.17;;;28.80;39.40;;;;;;5066561;28;45399;-71
2022/08/06 03:03:08;;;;;;;2.30;2.10;;;28.80;39.40;;;;;;5066859;28;45297;-71
2022/08/06 03:05:34;;;;;;;2.55;2.30;;;28.80;39.40;;;;;;5066777;28;45194;-71
2022/08/06 03:08:01;;;;;;;2.20;2.00;;;28.80;39.50;;;;;;5066811;28;45188;-71
2022/08/06 03:10:29;;;;;;;2.50;2.30;;;28.80;39.50;;;;;;5066375;28;46387;-71
2022/08/06 03:12:56;;;;;;;2.60;2.40;;;28.70;39.40;;;;;;5066464;28;45276;-71
2022/08/06 03:15:23;;;;;;;2.30;2.05;;;28.70;39.40;;;;;;5066647;28;45374;-71
2022/08/06 03:17:50;;;;;;;2.97;2.60;;;28.70;39.50;;;;;;5066695;28;45535;-71
2022/08/06 03:20:20;;;;;;;2.30;2.10;;;28.70;39.50;;;;;;5075327;28;45461;-71
2022/08/06 03:22:53;;;;;;;2.22;1.90;;;28.70;39.50;;;;;;5086582;28;45368;-71
2022/08/06 03:25:19;;;;;;;2.08;1.88;;;28.70;39.50;;;;;;5086705;28;45247;-71
2022/08/06 03:27:48;;;;;;;2.88;2.03;;;28.70;39.40;;;;;;5086828;28;45435;-71
2022/08/06 03:30:15;;;;;;;2.65;2.10;;;28.70;39.50;;;;;;5074800;28;45252;-70
2022/08/06 03:32:42;;;;;;;1.90;1.80;;;28.70;39.50;;;;;;5066221;28;45242;-71
2022/08/06 03:35:09;;;;;;;2.40;2.20;;;28.70;39.50;;;;;;5065722;28;45198;-71
2022/08/06 03:37:36;;;;;;;2.00;1.80;;;28.60;39.40;;;;;;5066308;28;45333;-71
2022/08/06 03:40:04;;;;;;;2.17;1.98;;;28.60;39.40;;;;;;5065938;28;47303;-71
2022/08/06 03:42:30;;;;;;;3.20;2.20;;;28.60;39.40;;;;;;5066090;28;45163;-71
2022/08/06 03:44:59;;;;;;;2.17;1.88;;;28.60;39.30;;;;;;5066205;28;45145;-71
2022/08/06 03:47:31;;;;;;;2.00;1.80;;;28.60;39.40;;;;;;5066261;28;45531;-71
2022/08/06 03:50:00;;;;;;;1.90;1.80;;;28.60;39.40;;;;;;5065878;28;45810;-71
2022/08/06 03:52:29;;;;;;;2.10;1.90;;;28.60;39.30;;;;;;5063379;28;45372;-71
2022/08/06 03:54:56;;;;;;;1.80;1.70;;;28.60;39.40;;;;;;5066112;28;45193;-71
2022/08/06 03:57:25;;;;;;;2.10;1.90;;;28.60;39.40;;;;;;5066169;28;45618;-71
2022/08/06 03:59:58;;;;;;;2.88;1.73;;;28.60;39.40;;;;;;5065853;28;46231;-71
2022/08/06 04:02:28;;;;;;;1.83;1.70;;;28.50;39.30;;;;;;5065824;28;45454;-71
2022/08/06 04:04:54;;;;;;;2.00;1.83;;;28.50;39.30;;;;;;5067760;28;45188;-71
2022/08/06 04:07:21;;;;;;;1.92;1.83;;;28.50;39.30;;;;;;5069663;28;45136;-71
2022/08/06 04:09:48;;;;;;;2.92;1.83;;;28.50;39.20;;;;;;5069252;28;45235;-70
2022/08/06 04:12:15;;;;;;;1.52;1.42;;;28.50;39.30;;;;;;5069376;28;45302;-71
2022/08/06 04:14:42;;;;;;;1.70;1.60;;;28.50;39.50;;;;;;5069291;28;45285;-71
2022/08/06 04:17:08;;;;;;;1.83;1.73;;;28.50;39.30;;;;;;5069475;28;45440;-71
2022/08/06 04:19:37;;;;;;;2.10;1.83;;;28.40;39.20;;;;;;5072344;28;45190;-71
2022/08/06 04:22:03;;;;;;;1.75;1.63;;;28.40;39.20;;;;;;5089434;28;45141;-71
2022/08/06 04:24:31;;;;;;;1.50;1.40;;;28.40;39.20;;;;;;5089642;28;45286;-71
2022/08/06 04:26:58;;;;;;;2.03;1.48;;;28.40;39.10;;;;;;5089182;28;45206;-71
2022/08/06 04:29:25;;;;;;;2.38;1.80;;;28.40;39.10;;;;;;5084120;28;45316;-71
2022/08/06 04:31:52;;;;;;;1.95;1.80;;;28.40;39.20;;;;;;5069023;28;45225;-71
2022/08/06 04:34:21;;;;;;;2.45;1.70;;;28.40;39.10;;;;;;5069070;28;45149;-71
2022/08/06 04:36:50;;;;;;;1.95;1.58;;;28.40;39.80;;;;;;5069178;28;45443;-71
2022/08/06 04:39:17;;;;;;;1.70;1.60;;;28.40;39.10;;;;;;5068429;28;45265;-70
2022/08/06 04:41:43;;;;;;;1.60;1.50;;;28.40;39.10;;;;;;5068812;28;45200;-71
2022/08/06 04:44:11;;;;;;;1.80;1.70;;;28.40;39.20;;;;;;5068869;28;45338;-71
2022/08/06 04:46:38;;;;;;;2.92;1.60;;;28.30;39.10;;;;;;5068840;28;45595;-71
2022/08/06 04:49:04;;;;;;;1.60;1.50;;;28.30;39.10;;;;;;5068539;28;46294;-71
2022/08/06 04:51:31;;;;;;;1.60;1.50;;;28.30;39.10;;;;;;5068701;28;45134;-71
2022/08/06 04:53:59;;;;;;;1.60;1.50;;;28.30;39.10;;;;;;5068706;28;45224;-71
2022/08/06 04:56:26;;;;;;;1.77;1.67;;;28.30;39.10;;;;;;5068645;28;45340;-71
2022/08/06 04:58:53;;;;;;;1.45;1.35;;;28.30;39.00;;;;;;5068678;28;45323;-71
2022/08/06 05:01:20;;;;;;;1.83;1.60;;;28.30;39.00;;;;;;5068328;28;45268;-71
2022/08/06 05:03:46;;;;;;;1.50;1.40;;;28.30;39.00;;;;;;5068637;28;45170;-71
2022/08/06 05:06:16;;;;;;;1.63;1.52;;;28.30;39.00;;;;;;5068631;28;45438;-71
2022/08/06 05:08:44;;;;;;;1.52;1.42;;;28.30;39.00;;;;;;5068242;28;46398;-71
2022/08/06 05:11:15;;;;;;;1.60;1.50;;;28.30;39.00;;;;;;5068378;28;45246;-71
2022/08/06 05:13:42;;;;;;;1.40;1.30;;;28.20;38.90;;;;;;5068463;28;45258;-71
2022/08/06 05:16:10;;;;;;;1.42;1.33;;;28.20;38.90;;;;;;5066644;28;45299;-71
2022/08/06 05:18:39;;;;;;;2.38;1.50;;;28.20;38.90;;;;;;5067923;28;45192;-71
2022/08/06 05:21:06;;;;;;;1.30;1.20;;;28.20;38.90;;;;;;5084190;28;45454;-71
2022/08/06 05:23:36;;;;;;;1.30;1.25;;;28.20;38.90;;;;;;5088760;28;45417;-71
2022/08/06 05:26:03;;;;;;;1.50;1.40;;;28.20;38.90;;;;;;5088682;28;45433;-71
2022/08/06 05:28:31;;;;;;;1.55;1.45;;;28.20;38.90;;;;;;5088456;28;47316;-71
2022/08/06 05:30:58;;;;;;;1.33;1.23;;;28.10;38.80;;;;;;5070583;28;45375;-71
2022/08/06 05:33:26;;;;;;;1.50;1.40;;;28.10;38.80;;;;;;5070397;28;45344;-71
2022/08/06 05:35:52;;;;;;;1.33;1.23;;;28.10;38.80;;;;;;5069240;28;45151;-71
2022/08/06 05:38:19;;;;;;;1.30;1.20;;;28.10;38.80;;;;;;5067798;28;45205;-71
2022/08/06 05:40:46;;;;;;;1.30;1.20;;;28.10;38.80;;;;;;5067675;28;45253;-71
2022/08/06 05:43:13;;;;;;;1.40;1.30;;;28.10;38.80;;;;;;5068005;28;45257;-71
2022/08/06 05:45:41;;;;;;;1.60;1.00;;;28.10;38.80;;;;;;5068120;28;45253;-71
2022/08/06 05:48:08;;;;;;;1.38;1.20;;;28.10;38.80;;;;;;5067610;28;46382;-71
2022/08/06 05:50:38;;;;;;;1.58;1.30;;;28.10;38.80;;;;;;5067766;28;45154;-71
2022/08/06 05:53:07;;;;;;;1.10;1.10;;;28.10;38.80;;;;;;5067824;28;45263;-71
2022/08/06 05:55:38;;;;;;;1.13;1.13;;;28.10;38.80;;;;;;5068000;28;45123;-71
2022/08/06 05:58:07;;;;;;;1.30;1.20;;;28.00;38.80;;;;;;5067730;28;45508;-71
2022/08/06 06:00:34;;;;;;;2.20;1.05;;;28.10;38.80;;;;;;5067610;28;45201;-71
2022/08/06 06:03:04;;;;;;;1.30;1.20;;;28.00;38.80;;;;;;5067550;28;45348;-71
2022/08/06 06:05:31;;;;;;;1.40;1.17;;;28.00;38.70;;;;;;5067532;28;45184;-71
2022/08/06 06:07:58;;;;;;;1.08;1.08;;;28.00;38.70;;;;;;5066555;28;45168;-72
2022/08/06 06:10:25;;;;;;;1.17;1.10;;;28.00;38.80;;;;;;5067131;28;45210;-71
2022/08/06 06:12:51;;;;;;;2.05;1.35;;;28.00;38.80;;;;;;5067321;28;45350;-71
2022/08/06 06:15:18;;;;;;;1.98;1.13;;;28.00;38.70;;;;;;5067482;28;45477;-71
2022/08/06 06:17:55;;;;;;;1.50;1.40;;;28.00;38.80;;;;;;5067109;28;45353;-72
2022/08/06 06:20:29;;;;;;;1.00;1.00;;;28.00;38.70;;;;;;5076999;28;45125;-71
2022/08/06 06:22:58;;;;;;;1.80;1.10;;;28.00;38.80;;;;;;5087488;28;45190;-72
2022/08/06 06:25:26;;;;;;;1.10;1.00;;;28.00;38.70;;;;;;5087702;28;45127;-71
2022/08/06 06:27:56;;;;;;;2.47;0.98;;;28.00;38.70;;;;;;5086602;28;45731;-71
2022/08/06 06:30:25;;;;;;;1.10;0.90;;;28.00;38.80;;;;;;5074535;28;45131;-72
2022/08/06 06:32:55;;;;;;;2.70;1.00;;;28.00;38.70;;;;;;5067082;28;45272;-71
2022/08/06 06:35:29;;;;;;;1.17;1.17;;;28.00;38.70;;;;;;5067230;28;45196;-72
2022/08/06 06:37:59;;;;;;;0.77;0.77;;;28.00;38.70;;;;;;5066738;28;45499;-71
2022/08/06 06:40:42;;;;;;;1.00;1.00;;;28.00;38.70;;;;;;5066616;28;45308;-71
2022/08/06 06:43:10;;;;;;;0.95;0.95;;;28.00;38.70;;;;;;5066908;28;45140;-71
2022/08/06 06:45:42;;;;;;;0.98;0.98;;;28.00;38.70;;;;;;5066884;28;45336;-71
2022/08/06 06:48:10;;;;;;;1.67;1.00;;;28.00;38.70;;;;;;5066414;28;45541;-71
2022/08/06 06:50:41;;;;;;;1.10;1.10;;;28.00;38.70;;;;;;5066424;28;45349;-71
2022/08/06 06:53:07;;;;;;;0.93;0.93;;;28.00;38.80;;;;;;5066729;28;45128;-71
2022/08/06 06:55:36;;;;;;;0.90;0.90;;;27.90;38.70;;;;;;5066907;28;45126;-71
2022/08/06 06:58:05;;;;;;;1.20;0.90;;;27.90;38.60;;;;;;5066487;28;45364;-71
2022/08/06 07:00:31;;;;;;;2.72;1.10;;;27.90;38.70;;;;;;5066624;28;45139;-72
2022/08/06 07:02:59;;;;;;;1.17;1.10;;;27.90;38.70;;;;;;5066758;28;45297;-71
2022/08/06 07:05:26;;;;;;;1.30;0.85;;;27.90;38.70;;;;;;5066611;28;45263;-71
2022/08/06 07:07:54;;;;;;;0.80;0.80;;;27.90;38.70;;;;;;5066282;28;46352;-71
2022/08/06 07:10:21;;;;;;;1.63;0.98;;;28.00;38.70;;;;;;5071442;28;45353;-72
2022/08/06 07:12:48;;;;;;;1.05;0.95;;;27.90;38.40;;;;;;5086727;28;45213;-71
2022/08/06 07:15:15;;;;;;;0.82;0.82;;;27.90;38.40;;;;;;5076079;28;45534;-72
2022/08/06 07:17:42;;;;;;;1.02;1.00;;;27.80;38.30;;;;;;5083022;27;46317;-71
2022/08/06 07:20:11;;;;;;;1.58;1.30;;;27.80;38.30;;;;;;5082452;28;45345;-71
2022/08/06 07:22:40;;;;;;;2.95;1.00;;;27.70;38.20;;;;;;5082726;27;45287;-71
2022/08/06 07:25:10;;;;;;;1.23;1.00;;;27.70;38.30;;;;;;5083820;28;45566;-70
2022/08/06 07:27:39;;;;;;;2.47;1.27;;;27.70;38.00;;;;;;5081002;27;45493;-71
2022/08/06 07:30:07;;;;;;;1.20;1.10;;;27.70;38.10;;;;;;5081436;27;45369;-71
2022/08/06 07:32:34;;;;;;;1.52;0.82;;;27.70;38.00;;;;;;5084998;27;45343;-71
2022/08/06 07:35:01;;;;;;;2.13;1.13;;;27.70;38.00;;;;;;5083763;27;45616;-72
2022/08/06 07:37:27;;;;;;;2.67;1.27;;;27.60;37.90;;;;;;5076322;28;46421;-71
2022/08/06 07:39:54;;;;;;;2.38;1.10;;;27.60;38.10;;;;;;5086564;27;45150;-70
2022/08/06 07:42:24;;;;;;;2.53;1.30;;;27.60;38.30;;;;;;5089240;28;45197;-71
2022/08/06 07:44:53;;;;;;;2.83;1.30;;;27.60;38.20;;;;;;5088832;28;45562;-71
2022/08/06 07:47:23;;;;;;;2.28;0.98;;;27.50;38.30;;;;;;5086845;28;45431;-70
2022/08/06 07:49:53;;;;;;;1.30;1.20;;;27.50;38.60;;;;;;5078915;27;45461;-70
2022/08/06 07:52:19;;;;;;;1.73;1.00;;;27.50;38.90;;;;;;5088925;28;45273;-70
2022/08/06 07:54:46;;;;;;;1.20;1.10;;;27.50;38.80;;;;;;5087934;28;45476;-69
2022/08/06 07:57:13;;;;;;;1.02;1.00;;;27.50;38.30;;;;;;5073776;28;45839;-70
2022/08/06 07:59:41;;;;;;;1.20;1.05;;;27.50;37.90;;;;;;5080412;27;45487;-70
2022/08/06 08:02:08;;;;;;;1.67;1.17;;;27.40;37.80;;;;;;5085356;27;45386;-69
2022/08/06 08:07:34;;;;;;;1.02;0.93;;;27.40;38.00;;;;;;5023532;28;46298;-70
2022/08/06 08:10:01;;;;;;;1.20;1.10;;;27.30;37.90;;;;;;5024980;28;45453;-70
2022/08/06 08:12:28;;;;;;;1.30;1.20;;;27.30;37.90;;;;;;5051333;28;45183;-69
2022/08/06 08:14:56;;;;;;;1.25;1.15;;;27.30;37.90;;;;;;5089564;28;45463;-69
2022/08/06 08:17:23;;;;;;;1.95;1.05;;;27.20;38.10;;;;;;5088874;28;45302;-69
2022/08/06 08:19:50;;;;;;;1.25;1.10;;;27.20;38.30;;;;;;5088679;28;45379;-69
2022/08/06 08:22:17;;;;;;;1.20;1.10;;;27.20;38.40;;;;;;5089141;28;45289;-69
2022/08/06 08:24:45;;;;;;;1.65;0.82;;;27.20;38.40;;;;;;5089350;28;45459;-69
2022/08/06 08:27:12;;;;;;;1.38;1.20;;;27.20;38.20;;;;;;5088745;28;45467;-69
2022/08/06 08:29:39;;;;;;;1.88;0.90;;;27.20;38.50;;;;;;5088618;28;45318;-69
2022/08/06 08:32:09;;;;;;;1.75;1.20;;;27.10;38.20;;;;;;5089076;28;45249;-69
2022/08/06 08:34:36;;;;;;;1.20;1.10;;;27.10;38.40;;;;;;5089120;28;45166;-69
2022/08/06 08:37:03;;;;;;;1.88;1.05;;;27.10;38.50;;;;;;5088546;28;46676;-69
2022/08/06 08:39:30;;;;;;;1.58;1.00;;;27.10;38.60;;;;;;5088368;28;45339;-69
2022/08/06 08:42:06;;;;;;;1.17;0.98;;;27.10;38.40;;;;;;5088785;28;45332;-69
2022/08/06 08:44:33;;;;;;;1.25;1.10;;;27.00;38.40;;;;;;5089146;28;45182;-70
2022/08/06 08:47:01;;;;;;;2.15;1.15;;;27.00;38.50;;;;;;5088718;27;45336;-70
2022/08/06 08:49:38;;;;;;;1.10;0.90;;;26.90;38.40;;;;;;5088482;27;45303;-70
2022/08/06 08:52:07;;;;;;;1.25;1.15;;;26.90;38.50;;;;;;5087460;27;45314;-69
2022/08/06 08:54:35;;;;;;;1.60;1.02;;;26.90;38.70;;;;;;5088987;27;45242;-70
2022/08/06 08:57:03;;;;;;;1.75;1.27;;;26.90;38.60;;;;;;5085888;27;45289;-69
2022/08/06 08:59:30;;;;;;;1.50;1.00;;;26.90;38.70;;;;;;5086641;27;45657;-69
2022/08/06 09:01:56;;;;;;;1.33;1.20;;;27.00;39.00;;;;;;5086783;28;45344;-69
2022/08/06 09:04:23;;;;;;;1.23;0.98;;;27.00;38.80;;;;;;5088737;27;45479;-69
2022/08/06 09:06:51;;;;;;;1.20;1.10;;;26.90;39.20;;;;;;5098146;27;46356;-70
2022/08/06 09:09:18;;;;;;;1.10;1.00;;;26.90;38.80;;;;;;5085639;28;45382;-69
2022/08/06 09:11:45;;;;;;;2.22;1.13;;;26.80;38.70;;;;;;5088211;28;45281;-69
2022/08/06 09:14:12;;;;;;;1.50;1.00;;;26.80;38.80;;;;;;5087846;27;45456;-69
2022/08/06 09:16:39;;;;;;;2.22;1.10;;;26.80;38.70;;;;;;5088269;28;45210;-69
2022/08/06 09:19:06;;;;;;;0.95;0.93;;;26.80;38.60;;;;;;5088979;27;45443;-69
2022/08/06 09:21:33;;;;;;;1.70;1.13;;;26.80;38.60;;;;;;5081526;27;45229;-69
2022/08/06 09:24:01;;;;;;;1.23;1.10;;;26.80;38.60;;;;;;5088377;28;45427;-69
2022/08/06 09:26:28;;;;;;;1.05;0.90;;;26.80;38.70;;;;;;5086347;27;46486;-69
2022/08/06 09:28:54;;;;;;;2.58;1.20;;;26.80;38.80;;;;;;5087976;28;45300;-69
2022/08/06 09:31:21;;;;;;;6.05;1.27;;;26.80;38.70;;;;;;5087571;27;46795;-70
2022/08/06 09:33:55;;;;;;;2.05;1.30;;;26.80;38.70;;;;;;5088372;28;45276;-70
2022/08/06 09:36:22;;;;;;;2.70;1.25;;;26.70;38.60;;;;;;5083957;27;46497;-69
2022/08/06 09:38:50;;;;;;;1.85;1.05;;;26.80;38.70;;;;;;5086375;27;45248;-69
2022/08/06 09:41:19;;;;;;;2.13;1.13;;;26.80;38.60;;;;;;5087884;27;45333;-69
2022/08/06 09:43:48;;;;;;;1.08;1.08;;;26.70;38.70;;;;;;5087940;27;45165;-69
2022/08/06 09:46:15;;;;;;;2.17;1.00;;;26.70;38.80;;;;;;5086147;27;45446;-69
2022/08/06 09:48:56;;;;;;;1.70;1.27;;;26.70;38.60;;;;;;5067425;28;45400;-69
2022/08/06 09:51:23;;;;;;;1.27;1.17;;;26.70;38.50;;;;;;5078055;27;45519;-69
2022/08/06 09:53:53;;;;;;;1.88;1.50;;;26.70;38.40;;;;;;5087616;27;45434;-69
2022/08/06 09:56:22;;;;;;;1.92;1.13;;;26.70;38.50;;;;;;5086553;27;46733;-69
2022/08/06 09:58:49;;;;;;;1.23;1.13;;;26.70;38.50;;;;;;5087150;27;45514;-69
2022/08/06 10:01:16;;;;;;;2.00;0.98;;;26.70;38.30;;;;;;5085379;27;45308;-69
2022/08/06 10:03:43;;;;;;;1.58;1.00;;;26.70;38.30;;;;;;5087543;28;45301;-69
2022/08/06 10:06:11;;;;;;;1.45;1.00;;;26.80;38.20;;;;;;5086653;27;45564;-69
2022/08/06 10:08:38;;;;;;;1.00;1.00;;;26.70;38.00;;;;;;5087275;27;45290;-69
2022/08/06 10:11:06;;;;;;;1.67;1.30;;;26.70;38.00;;;;;;5085746;27;45438;-69
2022/08/06 10:13:34;;;;;;;1.98;0.98;;;26.70;37.90;;;;;;5088266;27;45272;-69
2022/08/06 10:16:02;;;;;;;1.48;0.95;;;26.70;37.80;;;;;;5086684;27;45241;-69
2022/08/06 10:18:41;;;;;;;0.75;0.75;;;26.60;37.90;;;;;;5086431;27;45310;-70
2022/08/06 10:21:09;;;;;;;1.98;1.02;;;26.60;37.90;;;;;;5077507;27;45565;-69
2022/08/06 10:23:36;;;;;;;1.30;1.10;;;26.60;38.00;;;;;;5085160;27;45404;-69
2022/08/06 10:26:04;;;;;;;1.15;1.00;;;26.60;38.00;;;;;;5087114;28;46667;-68
2022/08/06 10:28:32;;;;;;;1.98;1.20;;;26.60;38.10;;;;;;5090400;27;45422;-69
2022/08/06 10:31:01;;;;;;;1.00;1.00;;;26.70;38.10;;;;;;5091309;27;45423;-69
2022/08/06 10:33:28;;;;;;;2.17;1.20;;;26.70;37.90;;;;;;5086797;27;45421;-67
2022/08/06 10:35:58;;;;;;;3.20;1.30;;;26.70;37.90;;;;;;5087025;28;46728;-69
2022/08/06 10:38:27;;;;;;;1.10;1.00;;;26.70;38.10;;;;;;5086556;27;45416;-69
2022/08/06 10:40:54;;;;;;;3.97;1.42;;;26.80;38.00;;;;;;5085206;27;45385;-70
2022/08/06 10:43:20;;;;;;;1.00;1.00;;;26.90;38.20;;;;;;5084097;27;45442;-69
2022/08/06 10:45:47;;;;;;;0.80;0.80;;;26.90;37.90;;;;;;5086713;28;45493;-69
2022/08/06 10:48:16;;;;;;;1.20;1.08;;;27.00;37.80;;;;;;5086883;28;45234;-69
2022/08/06 10:50:42;;;;;;;1.20;1.00;;;26.90;37.50;;;;;;5086882;27;45199;-69
2022/08/06 10:53:10;;;;;;;1.00;1.00;;;26.90;37.80;;;;;;5083636;27;45257;-69
2022/08/06 10:55:36;;;;;;;1.50;1.17;;;27.00;37.80;;;;;;5086319;27;47340;-69
2022/08/06 10:58:03;;;;;;;2.30;1.10;;;27.00;37.70;;;;;;5084815;27;45288;-70
2022/08/06 11:00:32;;;;;;;1.25;0.95;;;27.00;37.60;;;;;;5086676;28;45214;-69
2022/08/06 11:03:02;;;;;;;1.58;1.02;;;27.10;37.70;;;;;;5085510;27;45794;-70
2022/08/06 11:05:33;;;;;;;1.25;1.00;;;27.10;37.50;;;;;;5085687;28;45462;-70
2022/08/06 11:08:28;;;;;;;2.75;1.23;;;27.10;37.60;;;;;;5073927;27;45463;-70
2022/08/06 11:11:25;;;;;;;1.17;1.00;;;27.20;37.90;;;;;;5083176;27;45272;-70
2022/08/06 11:14:02;;;;;;;1.80;1.10;;;27.20;37.60;;;;;;5080191;27;45421;-70
2022/08/06 11:16:29;;;;;;;1.15;1.00;;;27.20;37.60;;;;;;5084524;27;45467;-70
2022/08/06 11:19:01;;;;;;;1.95;1.30;;;27.20;37.80;;;;;;5075258;27;45143;-71
2022/08/06 11:21:40;;;;;;;1.77;1.08;;;27.30;37.90;;;;;;5086479;27;45436;-70
2022/08/06 11:24:07;;;;;;;2.25;1.20;;;27.40;37.90;;;;;;5083343;27;45284;-71
2022/08/06 11:26:39;;;;;;;4.47;1.20;;;27.40;38.20;;;;;;5083349;27;45269;-70
2022/08/06 11:29:06;;;;;;;1.75;1.00;;;27.50;37.80;;;;;;5082255;27;45490;-70
2022/08/06 11:31:41;;;;;;;2.20;1.10;;;27.50;37.90;;;;;;5083579;27;45357;-70
2022/08/06 11:34:10;;;;;;;2.45;1.38;;;27.60;38.10;;;;;;5086081;27;45408;-70
2022/08/06 11:37:02;;;;;;;1.90;1.20;;;27.50;38.40;;;;;;5087493;27;45421;-70
2022/08/06 11:39:29;;;;;;;2.17;1.00;;;27.60;38.50;;;;;;5084170;27;45569;-71
2022/08/06 11:41:57;;;;;;;1.58;1.40;;;27.60;38.10;;;;;;5084409;27;45342;-71
2022/08/06 11:44:25;;;;;;;4.10;1.30;;;27.70;37.90;;;;;;5086157;27;45388;-70
2022/08/06 11:47:07;;;;;;;1.52;1.23;;;27.90;37.80;;;;;;5085427;27;46142;-70
2022/08/06 11:49:38;;;;;;;1.52;1.10;;;28.00;37.50;;;;;;5084752;27;45226;-70
2022/08/06 11:52:07;;;;;;;2.00;1.13;;;28.20;37.40;;;;;;5085947;27;45329;-70
2022/08/06 11:54:36;;;;;;;2.55;1.05;;;28.20;37.20;;;;;;5086013;27;45281;-70
2022/08/06 11:57:23;;;;;;;2.20;1.17;;;28.30;37.10;;;;;;5083563;27;45413;-71
2022/08/06 12:00:21;;;;;;;3.35;1.65;;;28.30;37.20;;;;;;5081480;27;45249;-70
2022/08/06 12:02:53;;;;;;;2.50;1.17;;;28.30;36.90;;;;;;5024010;28;45320;-70
2022/08/06 12:05:37;;;;;;;2.88;1.17;;;28.40;37.50;;;;;;5060231;28;45476;-70
2022/08/06 12:08:21;;;;;;;1.40;0.93;;;28.50;36.70;;;;;;5064855;27;45478;-70
2022/08/06 12:11:27;;;;;;;4.13;1.20;;;28.60;36.70;;;;;;5080062;27;45460;-71
2022/08/06 12:13:54;;;;;;;2.00;1.30;;;28.70;36.30;;;;;;5075130;27;45214;-70
2022/08/06 12:16:42;;;;;;;1.55;0.93;;;28.70;36.40;;;;;;5081277;27;45464;-70
2022/08/06 12:19:17;;;;;;;1.00;1.00;;;28.70;36.40;;;;;;5079149;27;45542;-70
2022/08/06 12:21:44;;;;;;;5.05;1.20;;;28.70;36.20;;;;;;5086063;27;45332;-71
2022/08/06 12:24:13;;;;;;;2.45;1.08;;;28.70;36.30;;;;;;5085372;27;45200;-70
2022/08/06 12:26:40;;;;;;;2.33;1.20;;;28.70;36.30;;;;;;5088342;27;45185;-70
2022/08/06 12:29:07;;;;;;;2.10;1.30;;;28.70;36.30;;;;;;5088422;27;46375;-70
2022/08/06 12:31:38;;;;;;;1.73;1.13;;;28.60;36.50;;;;;;5090132;28;45376;-70
2022/08/06 12:34:05;;;;;;;2.17;1.20;;;28.60;36.60;;;;;;5090012;27;45467;-70
2022/08/06 12:36:34;;;;;;;1.60;1.23;;;28.60;37.10;;;;;;5089238;28;45304;-70
2022/08/06 12:39:02;;;;;;;1.48;1.40;;;28.60;36.30;;;;;;5088229;28;45662;-70
2022/08/06 12:41:41;;;;;;;1.20;1.10;;;28.60;36.00;;;;;;5089323;28;45399;-70
2022/08/06 12:44:09;;;;;;;1.40;1.30;;;28.60;36.00;;;;;;5089071;28;45296;-70
2022/08/06 12:46:36;;;;;;;2.50;1.67;;;28.50;36.10;;;;;;5089424;28;45203;-70
2022/08/06 12:49:02;;;;;;;3.22;1.40;;;28.40;36.40;;;;;;5088955;28;46370;-70
2022/08/06 12:51:29;;;;;;;2.58;1.30;;;28.30;36.20;;;;;;5089089;28;45196;-70
2022/08/06 12:53:58;;;;;;;4.03;1.08;;;28.30;36.40;;;;;;5089242;28;45231;-70
2022/08/06 12:56:25;;;;;;;2.33;1.30;;;28.30;36.50;;;;;;5089407;28;45276;-70
2022/08/06 12:58:53;;;;;;;1.23;1.13;;;28.30;36.40;;;;;;5088888;28;45207;-70
2022/08/06 13:01:22;;;;;;;1.33;1.23;;;28.30;36.40;;;;;;5088999;28;45236;-71